Time;durP1;ratioP1;P1;durP2;ratioP2;P2;SDS_P1;SDS_P2;PMS_P1;PMS_P2;Temp;Humidity;BMP_temperature;BMP_pressure;BME280_temperature;BME280_humidity;BME280_pressure;Samples;Min_cycle;Max_cycle;Signal;HPM_P1;HPM_P2
2021/05/21 00:01:30;;;;;;;1.42;0.80;;;14.90;99.90;;;;;;4963359;28;20040;-74
2021/05/21 00:03:56;;;;;;;1.58;1.00;;;14.80;99.90;;;;;;4967491;28;20024;-74
2021/05/21 00:06:22;;;;;;;4.05;0.90;;;14.80;99.90;;;;;;4965148;28;20046;-74
2021/05/21 00:08:47;;;;;;;3.20;1.40;;;14.80;99.90;;;;;;4966641;28;20034;-73
2021/05/21 00:11:13;;;;;;;1.38;0.98;;;14.80;99.90;;;;;;4960733;28;20106;-73
2021/05/21 00:13:39;;;;;;;3.45;1.45;;;14.90;99.90;;;;;;4960977;28;20069;-74
2021/05/21 00:16:05;;;;;;;8.77;1.33;;;14.80;99.90;;;;;;4961602;28;20039;-73
2021/05/21 00:18:31;;;;;;;2.00;0.88;;;14.80;99.90;;;;;;4961997;28;20046;-74
2021/05/21 00:20:57;;;;;;;6.55;1.15;;;14.80;99.90;;;;;;4960934;28;20090;-73
2021/05/21 00:23:23;;;;;;;3.05;1.20;;;14.80;99.90;;;;;;4958743;28;20122;-74
2021/05/21 00:25:48;;;;;;;1.75;0.93;;;14.90;99.90;;;;;;4960415;28;20027;-73
2021/05/21 00:28:15;;;;;;;2.20;1.10;;;14.80;99.90;;;;;;4964435;28;20129;-74
2021/05/21 00:30:40;;;;;;;2.20;0.90;;;14.70;99.90;;;;;;4964434;28;20095;-74
2021/05/21 00:33:06;;;;;;;1.92;1.05;;;14.70;99.90;;;;;;4959905;28;20054;-73
2021/05/21 00:35:31;;;;;;;2.80;1.00;;;14.70;99.90;;;;;;4962689;28;20388;-74
2021/05/21 00:37:57;;;;;;;4.22;1.10;;;14.70;99.90;;;;;;4958140;28;20388;-74
2021/05/21 00:40:23;;;;;;;2.03;0.90;;;14.60;99.90;;;;;;4966958;28;20023;-73
2021/05/21 00:42:49;;;;;;;2.15;1.15;;;14.50;99.90;;;;;;4967638;28;20029;-74
2021/05/21 00:45:14;;;;;;;3.25;0.80;;;14.50;99.90;;;;;;4961542;28;20034;-74
2021/05/21 00:47:41;;;;;;;2.42;1.27;;;14.50;99.90;;;;;;4962270;28;20031;-74
2021/05/21 00:50:08;;;;;;;1.90;1.20;;;14.50;99.90;;;;;;4959111;28;20042;-73
2021/05/21 00:52:35;;;;;;;2.15;1.00;;;14.50;99.90;;;;;;4959847;28;20382;-73
2021/05/21 00:55:01;;;;;;;1.23;0.90;;;14.50;99.90;;;;;;4962327;28;20050;-74
2021/05/21 00:57:27;;;;;;;2.58;1.00;;;14.40;99.90;;;;;;4960690;28;20468;-74
2021/05/21 00:59:54;;;;;;;3.30;1.00;;;14.40;99.90;;;;;;4964419;28;20030;-75
2021/05/21 01:02:20;;;;;;;5.82;1.45;;;14.40;99.90;;;;;;4962187;28;20093;-74
2021/05/21 01:04:45;;;;;;;1.42;0.90;;;14.40;99.90;;;;;;4961910;28;20094;-73
2021/05/21 01:07:11;;;;;;;3.92;0.93;;;14.30;99.90;;;;;;4967964;28;20026;-74
2021/05/21 01:09:37;;;;;;;2.92;1.00;;;14.20;99.90;;;;;;4963990;28;20034;-74
2021/05/21 01:12:03;;;;;;;0.93;0.82;;;14.30;99.90;;;;;;4958016;28;20042;-73
2021/05/21 01:14:29;;;;;;;4.57;0.98;;;14.20;99.90;;;;;;4962205;28;20019;-74
2021/05/21 01:16:55;;;;;;;2.40;1.08;;;14.30;99.90;;;;;;4963395;28;20039;-75
2021/05/21 01:19:20;;;;;;;5.18;1.20;;;14.20;99.90;;;;;;4962033;28;20503;-74
2021/05/21 01:21:46;;;;;;;3.13;1.15;;;14.20;99.90;;;;;;4963077;28;20053;-69
2021/05/21 01:24:12;;;;;;;2.13;0.75;;;14.30;99.90;;;;;;4963528;28;20163;-74
2021/05/21 01:26:38;;;;;;;2.35;1.20;;;14.40;99.90;;;;;;4962936;28;20046;-73
2021/05/21 01:29:06;;;;;;;4.50;1.08;;;14.50;99.90;;;;;;4961939;28;20027;-73
2021/05/21 01:31:32;;;;;;;4.93;1.50;;;14.50;99.90;;;;;;4962992;28;20027;-74
2021/05/21 01:33:58;;;;;;;4.88;0.65;;;14.50;99.90;;;;;;4966048;28;20534;-73
2021/05/21 01:36:25;;;;;;;2.80;0.90;;;14.50;99.90;;;;;;4959827;28;20125;-72
2021/05/21 01:39:06;;;;;;;2.17;0.75;;;14.50;99.90;;;;;;4958418;28;20059;-70
2021/05/21 01:41:34;;;;;;;1.60;0.70;;;14.40;99.90;;;;;;4962993;28;20041;-73
2021/05/21 01:44:01;;;;;;;3.22;1.27;;;14.40;99.90;;;;;;4964341;28;20666;-71
2021/05/21 01:46:27;;;;;;;2.40;1.27;;;14.30;99.90;;;;;;4970636;28;20039;-73
2021/05/21 01:48:53;;;;;;;4.95;0.95;;;14.30;99.90;;;;;;4969569;28;20494;-72
2021/05/21 01:51:18;;;;;;;3.00;1.33;;;14.30;99.90;;;;;;4967244;28;20038;-73
2021/05/21 01:53:44;;;;;;;5.43;0.90;;;14.30;99.90;;;;;;4965302;28;20427;-72
2021/05/21 01:56:10;;;;;;;1.45;0.95;;;14.30;99.90;;;;;;4964530;28;20039;-71
2021/05/21 01:58:35;;;;;;;1.35;0.77;;;14.30;99.90;;;;;;4968646;28;20050;-74
2021/05/21 02:01:02;;;;;;;2.92;0.95;;;14.30;99.90;;;;;;4967061;28;20074;-74
2021/05/21 02:03:29;;;;;;;2.42;0.82;;;14.30;99.90;;;;;;4968750;28;20453;-73
2021/05/21 02:05:55;;;;;;;2.83;1.00;;;14.20;99.90;;;;;;4966962;28;20055;-72
2021/05/21 02:08:25;;;;;;;2.45;0.90;;;14.20;99.90;;;;;;4973140;28;20030;-73
2021/05/21 02:10:52;;;;;;;3.30;1.23;;;14.10;99.90;;;;;;4964233;28;20029;-73
2021/05/21 02:13:18;;;;;;;6.15;1.00;;;14.10;99.90;;;;;;4969600;28;20041;-73
2021/05/21 02:15:43;;;;;;;2.38;1.23;;;14.10;99.90;;;;;;4966497;28;20026;-71
2021/05/21 02:18:09;;;;;;;4.38;0.90;;;14.10;99.90;;;;;;4965879;28;20391;-74
2021/05/21 02:20:35;;;;;;;4.55;1.30;;;14.10;99.90;;;;;;4956488;28;20419;-73
2021/05/21 02:23:02;;;;;;;4.28;0.98;;;14.00;99.90;;;;;;4960444;28;20527;-73
2021/05/21 02:25:28;;;;;;;4.30;1.40;;;14.00;99.90;;;;;;4965856;28;20479;-72
2021/05/21 02:27:53;;;;;;;3.10;0.80;;;14.00;99.90;;;;;;4959513;28;20031;-73
2021/05/21 02:30:19;;;;;;;3.50;1.10;;;14.00;99.90;;;;;;4962749;28;20019;-73
2021/05/21 02:32:45;;;;;;;4.18;1.17;;;14.10;99.90;;;;;;4960443;28;20417;-72
2021/05/21 02:35:11;;;;;;;4.00;1.13;;;14.10;99.90;;;;;;4966994;28;20408;-74
2021/05/21 02:37:37;;;;;;;4.35;1.48;;;14.10;99.90;;;;;;4961424;28;20492;-73
2021/05/21 02:40:07;;;;;;;4.72;1.23;;;14.00;99.90;;;;;;4963994;28;20030;-72
2021/05/21 02:42:32;;;;;;;4.38;0.90;;;14.00;99.90;;;;;;4960358;28;20038;-71
2021/05/21 02:44:58;;;;;;;3.38;1.10;;;14.00;99.90;;;;;;4963787;28;20472;-71
2021/05/21 02:47:24;;;;;;;5.13;1.25;;;14.00;99.90;;;;;;4962243;28;20035;-74
2021/05/21 02:49:49;;;;;;;3.47;1.08;;;13.90;99.90;;;;;;4960142;28;20095;-71
2021/05/21 02:52:15;;;;;;;5.65;1.80;;;13.90;99.90;;;;;;4960074;28;20023;-70
2021/05/21 02:54:41;;;;;;;4.85;0.90;;;13.90;99.90;;;;;;4965500;28;20384;-74
2021/05/21 02:57:06;;;;;;;2.15;0.93;;;13.80;99.90;;;;;;4962263;28;21267;-73
2021/05/21 02:59:32;;;;;;;5.28;1.10;;;13.90;99.90;;;;;;4971209;28;20098;-73
2021/05/21 03:01:58;;;;;;;3.92;1.00;;;13.90;99.90;;;;;;4956901;28;20513;-74
2021/05/21 03:04:23;;;;;;;6.82;1.30;;;13.90;99.90;;;;;;4961847;28;20028;-73
2021/05/21 03:06:49;;;;;;;2.60;1.00;;;13.90;99.90;;;;;;4962854;28;20496;-73
2021/05/21 03:09:16;;;;;;;3.88;0.80;;;14.10;99.90;;;;;;4964793;28;20027;-73
2021/05/21 03:11:42;;;;;;;2.30;0.70;;;14.10;99.90;;;;;;4964804;28;20035;-72
2021/05/21 03:14:07;;;;;;;6.13;1.10;;;14.20;99.90;;;;;;4961381;28;20031;-72
2021/05/21 03:16:33;;;;;;;1.92;0.70;;;14.20;99.90;;;;;;4968029;28;20109;-72
2021/05/21 03:19:00;;;;;;;3.63;0.85;;;14.20;99.90;;;;;;4958262;28;20054;-73
2021/05/21 03:21:25;;;;;;;4.63;1.10;;;14.30;99.90;;;;;;4958407;28;20051;-72
2021/05/21 03:23:51;;;;;;;2.42;0.82;;;14.30;99.90;;;;;;4960010;28;20029;-73
2021/05/21 03:26:17;;;;;;;3.10;1.05;;;14.30;99.90;;;;;;4963438;28;20041;-72
2021/05/21 03:28:43;;;;;;;5.00;1.20;;;14.30;99.90;;;;;;4958156;28;20027;-73
2021/05/21 03:31:09;;;;;;;3.58;1.13;;;14.30;99.90;;;;;;4966759;28;20490;-74
2021/05/21 03:33:35;;;;;;;8.25;1.40;;;14.30;99.90;;;;;;4956427;28;20042;-73
2021/05/21 03:36:02;;;;;;;3.75;1.10;;;14.40;99.90;;;;;;4964822;28;20027;-73
2021/05/21 03:38:28;;;;;;;5.30;1.00;;;14.30;99.90;;;;;;4964704;28;20543;-74
2021/05/21 03:40:54;;;;;;;3.92;1.20;;;14.40;99.90;;;;;;4964809;28;20020;-74
2021/05/21 03:43:21;;;;;;;4.13;1.20;;;14.40;99.90;;;;;;4963674;28;20038;-74
2021/05/21 03:45:47;;;;;;;6.57;1.10;;;14.40;99.90;;;;;;4969094;28;20027;-73
2021/05/21 03:48:13;;;;;;;3.30;1.13;;;14.50;99.90;;;;;;4963884;28;20380;-73
2021/05/21 03:50:39;;;;;;;3.70;1.10;;;14.50;99.90;;;;;;4959081;28;20098;-73
2021/05/21 03:53:05;;;;;;;3.95;1.10;;;14.50;99.90;;;;;;4959861;28;20415;-74
2021/05/21 03:55:31;;;;;;;2.45;1.00;;;14.50;99.90;;;;;;4958870;28;20055;-72
2021/05/21 03:57:57;;;;;;;1.88;1.30;;;14.50;99.90;;;;;;4960941;28;20106;-74
2021/05/21 04:00:23;;;;;;;5.47;1.27;;;14.50;99.90;;;;;;4962674;28;20598;-70
2021/05/21 04:02:50;;;;;;;3.20;1.08;;;14.50;99.90;;;;;;4957890;28;20035;-72
2021/05/21 04:05:19;;;;;;;3.13;0.95;;;14.50;99.90;;;;;;4963364;28;20065;-71
2021/05/21 04:07:47;;;;;;;9.73;1.83;;;14.60;99.90;;;;;;4962269;28;20430;-73
2021/05/21 04:10:12;;;;;;;3.90;1.20;;;14.50;99.90;;;;;;4960955;28;20129;-70
2021/05/21 04:12:38;;;;;;;3.30;0.88;;;14.50;99.90;;;;;;4966952;28;20388;-73
2021/05/21 04:15:05;;;;;;;5.85;2.05;;;14.50;99.90;;;;;;4970306;28;20031;-70
2021/05/21 04:17:31;;;;;;;3.08;1.17;;;14.60;99.90;;;;;;4960293;28;20094;-74
2021/05/21 04:19:57;;;;;;;1.70;1.15;;;14.60;99.90;;;;;;4963180;28;20317;-73
2021/05/21 04:22:22;;;;;;;4.03;1.25;;;14.60;99.90;;;;;;4966840;28;20043;-73
2021/05/21 04:24:48;;;;;;;10.27;2.08;;;14.70;99.90;;;;;;4964326;28;20023;-74
2021/05/21 04:27:14;;;;;;;4.78;1.67;;;14.70;99.90;;;;;;4963517;28;20479;-73
2021/05/21 04:29:40;;;;;;;4.15;1.17;;;14.70;99.90;;;;;;4968048;28;20049;-74
2021/05/21 04:32:06;;;;;;;4.07;1.60;;;14.70;99.90;;;;;;4965716;28;20034;-73
2021/05/21 04:34:33;;;;;;;4.13;1.17;;;14.70;99.90;;;;;;4968113;28;20353;-72
2021/05/21 04:36:59;;;;;;;6.40;1.17;;;14.70;99.90;;;;;;4962059;28;20038;-72
2021/05/21 04:39:25;;;;;;;4.55;1.20;;;14.70;99.90;;;;;;4968973;28;20026;-73
2021/05/21 04:41:53;;;;;;;4.45;1.10;;;14.80;99.90;;;;;;4964756;28;20086;-74
2021/05/21 04:44:18;;;;;;;2.45;1.10;;;14.70;99.90;;;;;;4962266;28;20035;-73
2021/05/21 04:46:44;;;;;;;2.33;1.13;;;14.70;99.90;;;;;;4966678;28;20034;-74
2021/05/21 04:49:10;;;;;;;2.08;1.05;;;14.70;99.90;;;;;;4963939;28;20483;-72
2021/05/21 04:51:35;;;;;;;2.97;1.00;;;14.60;99.90;;;;;;4964167;28;20390;-73
2021/05/21 04:54:04;;;;;;;4.55;1.60;;;14.70;99.90;;;;;;4969943;28;20030;-74
2021/05/21 04:56:30;;;;;;;2.20;1.00;;;14.70;99.90;;;;;;4972739;28;20491;-74
2021/05/21 04:58:56;;;;;;;1.63;0.90;;;14.70;99.90;;;;;;4964918;28;20027;-74
2021/05/21 05:01:22;;;;;;;3.17;1.17;;;14.80;99.90;;;;;;4959821;28;20508;-74
2021/05/21 05:03:47;;;;;;;3.50;1.45;;;14.90;99.90;;;;;;4965577;28;20805;-72
2021/05/21 05:06:13;;;;;;;7.85;1.25;;;14.80;99.90;;;;;;4959236;28;20039;-69
2021/05/21 05:08:40;;;;;;;4.30;1.50;;;14.70;99.90;;;;;;4962809;28;20023;-74
2021/05/21 05:11:05;;;;;;;5.90;1.30;;;14.80;99.90;;;;;;4964130;28;20078;-73
2021/05/21 05:13:31;;;;;;;5.97;1.30;;;14.80;99.90;;;;;;4969096;28;20035;-73
2021/05/21 05:15:57;;;;;;;6.05;1.58;;;14.70;99.90;;;;;;4963322;28;20031;-73
2021/05/21 05:18:22;;;;;;;4.82;1.70;;;14.70;99.90;;;;;;4963922;28;20538;-72
2021/05/21 05:20:48;;;;;;;3.80;1.50;;;14.70;99.90;;;;;;4958498;28;20043;-72
2021/05/21 05:23:15;;;;;;;2.90;1.40;;;14.60;99.90;;;;;;4963915;28;20030;-73
2021/05/21 05:25:42;;;;;;;3.90;1.50;;;14.70;99.90;;;;;;4957720;28;20368;-73
2021/05/21 05:28:08;;;;;;;4.05;1.23;;;14.70;99.90;;;;;;4962480;28;20042;-73
2021/05/21 05:30:34;;;;;;;5.38;2.03;;;14.80;99.90;;;;;;4965295;28;20034;-74
2021/05/21 05:33:00;;;;;;;3.50;1.83;;;14.90;99.90;;;;;;4958854;28;20050;-73
2021/05/21 05:35:25;;;;;;;4.30;1.60;;;15.00;99.90;;;;;;4959780;28;20023;-74
2021/05/21 05:37:51;;;;;;;7.85;1.80;;;15.00;99.90;;;;;;4961753;28;20396;-72
2021/05/21 05:40:17;;;;;;;8.63;1.80;;;15.10;99.90;;;;;;4965172;28;20179;-74
2021/05/21 05:42:43;;;;;;;4.88;1.58;;;15.10;99.90;;;;;;4964859;28;20043;-73
2021/05/21 05:45:09;;;;;;;6.32;2.15;;;15.20;99.90;;;;;;4968420;28;20026;-74
2021/05/21 05:47:35;;;;;;;3.63;1.55;;;15.10;99.90;;;;;;4967394;28;20431;-73
2021/05/21 05:50:00;;;;;;;5.38;1.63;;;15.00;99.90;;;;;;4967052;28;20025;-73
2021/05/21 05:52:26;;;;;;;5.93;1.38;;;15.00;99.90;;;;;;4970839;28;20058;-73
2021/05/21 05:54:52;;;;;;;5.45;1.67;;;15.00;99.90;;;;;;4965912;28;20031;-73
2021/05/21 05:57:18;;;;;;;9.93;2.15;;;15.10;99.90;;;;;;4968037;28;20135;-73
2021/05/21 05:59:44;;;;;;;6.88;1.63;;;15.10;99.90;;;;;;4966077;28;20057;-72
2021/05/21 06:02:09;;;;;;;12.07;2.13;;;15.10;99.90;;;;;;4956897;28;20058;-72
2021/05/21 06:04:35;;;;;;;9.05;2.28;;;15.20;99.90;;;;;;4964460;28;20063;-73
2021/05/21 06:07:01;;;;;;;5.22;1.80;;;15.30;99.90;;;;;;4965429;28;20034;-73
2021/05/21 06:09:28;;;;;;;7.88;2.60;;;15.20;99.90;;;;;;4958345;28;20019;-73
2021/05/21 06:11:55;;;;;;;6.05;1.88;;;15.20;99.90;;;;;;4969959;28;20020;-72
2021/05/21 06:14:20;;;;;;;8.68;2.80;;;15.20;99.90;;;;;;4959570;28;20526;-74
2021/05/21 06:16:46;;;;;;;11.52;3.17;;;14.90;99.90;;;;;;4965629;28;20023;-71
2021/05/21 06:19:12;;;;;;;8.98;2.58;;;14.90;99.90;;;;;;4959632;28;20054;-71
2021/05/21 06:21:37;;;;;;;13.30;3.13;;;15.00;99.90;;;;;;4967401;28;20070;-69
2021/05/21 06:24:03;;;;;;;14.88;3.13;;;15.00;99.90;;;;;;4964577;28;20023;-72
2021/05/21 06:26:40;;;;;;;10.23;3.22;;;14.80;99.90;;;;;;4964787;28;20483;-70
2021/05/21 06:29:05;;;;;;;8.98;2.38;;;14.80;99.90;;;;;;4959265;28;20023;-70
2021/05/21 06:31:31;;;;;;;9.95;3.40;;;14.70;99.90;;;;;;4960441;28;20030;-73
2021/05/21 06:33:57;;;;;;;8.88;2.80;;;14.70;99.90;;;;;;4957300;28;20156;-69
2021/05/21 06:36:23;;;;;;;12.80;3.50;;;14.60;99.90;;;;;;4963267;28;20503;-69
2021/05/21 06:38:48;;;;;;;12.20;3.55;;;14.60;99.90;;;;;;4970152;28;20102;-69
2021/05/21 06:41:14;;;;;;;9.18;2.88;;;14.40;99.90;;;;;;4964363;28;20500;-72
2021/05/21 06:43:39;;;;;;;7.65;2.55;;;14.40;99.90;;;;;;4961284;28;20027;-69
2021/05/21 06:46:05;;;;;;;9.45;2.75;;;14.40;99.90;;;;;;4966034;28;20387;-69
2021/05/21 06:48:34;;;;;;;12.68;3.40;;;14.40;99.90;;;;;;4965297;28;20455;-67
2021/05/21 06:51:02;;;;;;;15.52;5.10;;;14.50;99.90;;;;;;4957732;28;20038;-68
2021/05/21 06:53:28;;;;;;;170.52;17.23;;;14.50;99.90;;;;;;4960299;28;20039;-70
2021/05/21 06:55:54;;;;;;;371.98;34.25;;;14.60;99.90;;;;;;4959590;28;20024;-70
2021/05/21 06:58:21;;;;;;;19.20;4.07;;;14.50;99.90;;;;;;4964946;28;20027;-70
2021/05/21 07:00:52;;;;;;;11.65;3.50;;;14.50;99.90;;;;;;4960627;28;20392;-71
2021/05/21 07:03:18;;;;;;;12.65;2.70;;;14.50;99.90;;;;;;4965506;28;20038;-69
2021/05/21 07:05:44;;;;;;;13.80;3.40;;;14.70;99.90;;;;;;4956127;28;20110;-72
2021/05/21 07:08:14;;;;;;;13.75;4.57;;;14.90;99.90;;;;;;4961008;28;20056;-72
2021/05/21 07:10:39;;;;;;;17.70;3.15;;;14.70;99.90;;;;;;4965693;28;20471;-72
2021/05/21 07:13:12;;;;;;;16.73;3.50;;;14.80;99.90;;;;;;4959396;28;20049;-73
2021/05/21 07:15:38;;;;;;;20.08;3.58;;;14.90;99.90;;;;;;4965388;28;20276;-71
2021/05/21 07:18:05;;;;;;;22.40;4.38;;;15.00;99.90;;;;;;4964723;28;20043;-68
2021/05/21 07:20:30;;;;;;;22.42;4.00;;;14.90;99.90;;;;;;4960786;28;20038;-71
2021/05/21 07:22:56;;;;;;;20.40;4.03;;;14.90;99.90;;;;;;4963932;28;20035;-70
2021/05/21 07:25:23;;;;;;;20.05;3.90;;;14.90;99.90;;;;;;4956787;28;20058;-72
2021/05/21 07:27:49;;;;;;;23.70;3.50;;;15.10;99.90;;;;;;4962697;28;20383;-73
2021/05/21 07:30:15;;;;;;;19.65;3.50;;;15.10;99.90;;;;;;4961930;28;20099;-72
2021/05/21 07:32:41;;;;;;;22.75;4.78;;;15.20;99.90;;;;;;4964322;28;20019;-70
2021/05/21 07:35:07;;;;;;;24.15;3.72;;;15.20;99.90;;;;;;4947688;28;20468;-79
2021/05/21 07:37:33;;;;;;;26.05;3.95;;;15.10;99.90;;;;;;4959565;28;20511;-70
2021/05/21 07:39:59;;;;;;;29.33;5.22;;;15.20;99.90;;;;;;4964695;28;20027;-72
2021/05/21 07:42:25;;;;;;;18.25;3.75;;;15.30;99.90;;;;;;4968835;28;20043;-67
2021/05/21 07:44:51;;;;;;;16.35;3.90;;;15.20;99.90;;;;;;4964977;28;20106;-67
2021/05/21 07:47:16;;;;;;;19.67;3.50;;;15.30;99.90;;;;;;4963550;28;20113;-72
2021/05/21 07:49:42;;;;;;;15.70;4.10;;;15.20;99.90;;;;;;4959448;28;20039;-75
2021/05/21 07:52:08;;;;;;;16.02;4.15;;;15.20;99.90;;;;;;4958417;28;20399;-67
2021/05/21 07:54:34;;;;;;;15.50;2.85;;;15.30;99.90;;;;;;4961390;28;20026;-71
2021/05/21 07:57:00;;;;;;;16.13;3.22;;;15.40;99.90;;;;;;4959033;28;20377;-73
2021/05/21 07:59:25;;;;;;;17.88;3.78;;;15.50;99.90;;;;;;4958773;28;20030;-68
2021/05/21 08:01:51;;;;;;;13.30;3.58;;;15.70;99.90;;;;;;4965348;28;20038;-70
2021/05/21 08:04:16;;;;;;;17.67;3.67;;;15.70;99.90;;;;;;4965907;28;20586;-68
2021/05/21 08:06:42;;;;;;;15.30;3.63;;;15.70;99.90;;;;;;4963880;28;20038;-72
2021/05/21 08:09:09;;;;;;;12.38;3.10;;;15.70;99.90;;;;;;4966405;28;20030;-69
2021/05/21 08:11:35;;;;;;;587.35;524.92;;;15.80;99.90;;;;;;4964741;28;20432;-72
2021/05/21 08:14:01;;;;;;;20.58;9.52;;;15.90;99.90;;;;;;4960873;28;20075;-75
2021/05/21 08:16:29;;;;;;;32.30;6.40;;;15.90;99.90;;;;;;4964767;28;20038;-70
2021/05/21 08:18:56;;;;;;;22.30;3.95;;;15.80;99.90;;;;;;4967688;28;20047;-70
2021/05/21 08:21:26;;;;;;;11.85;3.08;;;15.80;99.90;;;;;;4966883;28;20043;-76
2021/05/21 08:23:55;;;;;;;17.92;4.00;;;15.90;99.90;;;;;;4968905;28;20425;-73
2021/05/21 08:26:27;;;;;;;14.07;3.05;;;15.90;99.90;;;;;;4966283;28;20027;-71
2021/05/21 08:28:54;;;;;;;23.40;3.97;;;16.00;99.90;;;;;;4970607;28;20102;-72
2021/05/21 08:31:20;;;;;;;17.92;4.18;;;16.20;99.90;;;;;;4970855;28;20011;-75
2021/05/21 08:33:47;;;;;;;14.63;3.70;;;16.30;99.90;;;;;;4969340;28;20097;-69
2021/05/21 08:36:14;;;;;;;17.77;3.50;;;16.20;99.90;;;;;;4959598;28;20065;-69
2021/05/21 08:38:44;;;;;;;13.32;3.42;;;16.20;99.90;;;;;;4962374;28;20121;-68
2021/05/21 08:41:14;;;;;;;14.80;3.47;;;16.00;99.90;;;;;;4962327;28;20094;-72
2021/05/21 08:43:44;;;;;;;68.80;29.52;;;16.10;99.90;;;;;;4960809;28;20034;-70
2021/05/21 08:46:10;;;;;;;320.02;38.10;;;16.10;99.90;;;;;;4959757;28;20463;-69
2021/05/21 08:48:37;;;;;;;37.60;10.98;;;16.00;99.90;;;;;;4962344;28;20035;-71
2021/05/21 08:51:02;;;;;;;19.08;3.92;;;15.90;99.90;;;;;;4966686;28;20166;-69
2021/05/21 08:53:28;;;;;;;21.30;3.92;;;15.80;99.90;;;;;;4960029;28;20180;-72
2021/05/21 08:55:54;;;;;;;12.88;4.28;;;15.80;99.90;;;;;;4969342;28;20540;-72
2021/05/21 08:58:19;;;;;;;90.18;10.07;;;15.80;99.90;;;;;;4973047;28;20035;-69
2021/05/21 09:00:45;;;;;;;15.85;3.67;;;15.90;99.90;;;;;;4960322;28;20033;-71
2021/05/21 09:03:22;;;;;;;16.30;3.88;;;15.90;99.90;;;;;;4968581;28;20019;-71
2021/05/21 09:06:21;;;;;;;20.65;4.45;;;16.00;99.90;;;;;;4955800;28;20134;-72
2021/05/21 09:08:53;;;;;;;21.30;8.95;;;16.20;99.90;;;;;;4963346;28;20031;-71
2021/05/21 09:11:30;;;;;;;20.80;3.38;;;16.50;99.90;;;;;;4966418;28;20030;-72
2021/05/21 09:14:07;;;;;;;19.70;3.50;;;16.70;99.90;;;;;;4970825;28;20015;-70
2021/05/21 09:16:35;;;;;;;19.30;4.10;;;16.50;99.90;;;;;;4970393;28;20031;-70
2021/05/21 09:19:06;;;;;;;16.67;3.65;;;16.20;99.90;;;;;;4964833;28;20019;-67
2021/05/21 09:21:55;;;;;;;21.58;7.97;;;15.90;99.90;;;;;;4959168;28;20039;-84
2021/05/21 09:24:23;;;;;;;20.73;7.07;;;15.90;99.90;;;;;;4970292;28;20038;-75
2021/05/21 09:26:51;;;;;;;16.42;3.80;;;16.10;99.90;;;;;;4967425;28;20033;-71
2021/05/21 09:29:41;;;;;;;15.90;3.35;;;16.40;99.90;;;;;;4963598;28;20034;-72
2021/05/21 09:32:28;;;;;;;13.95;3.20;;;16.60;99.90;;;;;;4968776;28;20533;-77
2021/05/21 09:35:10;;;;;;;14.70;3.15;;;16.40;99.90;;;;;;4955149;28;20534;-73
2021/05/21 09:37:40;;;;;;;27.42;4.50;;;16.20;99.90;;;;;;4968868;28;20027;-76
2021/05/21 09:40:20;;;;;;;17.73;3.85;;;16.50;99.90;;;;;;4960604;28;20038;-71
2021/05/21 09:42:56;;;;;;;15.98;3.72;;;16.70;99.90;;;;;;4962187;28;20042;-72
2021/05/21 09:45:31;;;;;;;21.58;3.83;;;17.20;99.90;;;;;;4957958;28;20031;-73
2021/05/21 09:48:04;;;;;;;16.33;3.45;;;17.30;99.90;;;;;;4961492;28;20023;-71
2021/05/21 09:50:33;;;;;;;14.43;3.42;;;17.50;99.90;;;;;;4967676;28;20035;-71
2021/05/21 09:53:04;;;;;;;36.72;7.00;;;17.60;99.90;;;;;;4972877;28;20364;-75
2021/05/21 09:55:41;;;;;;;109.38;13.27;;;17.40;99.90;;;;;;4966021;28;20455;-71
2021/05/21 09:58:08;;;;;;;26.83;4.88;;;17.50;99.90;;;;;;4965001;28;20038;-65
2021/05/21 10:00:34;;;;;;;24.30;4.18;;;17.80;99.90;;;;;;4959648;28;20110;-71
2021/05/21 10:03:01;;;;;;;14.00;3.13;;;17.50;99.90;;;;;;4960920;28;20041;-71
2021/05/21 10:05:28;;;;;;;14.00;3.00;;;17.70;99.90;;;;;;4961674;28;20027;-69
2021/05/21 10:07:54;;;;;;;16.65;3.10;;;17.70;99.90;;;;;;4967030;28;20027;-71
2021/05/21 10:10:24;;;;;;;16.00;3.22;;;17.90;99.90;;;;;;4962590;28;20916;-68
2021/05/21 10:12:50;;;;;;;17.88;3.25;;;17.90;99.90;;;;;;4962879;28;20220;-72
2021/05/21 10:15:16;;;;;;;13.55;3.20;;;18.30;99.90;;;;;;4957502;28;20034;-73
2021/05/21 10:17:44;;;;;;;13.95;3.22;;;18.50;99.90;;;;;;4964962;28;20113;-71
2021/05/21 10:20:13;;;;;;;17.50;2.95;;;18.60;99.90;;;;;;4962229;28;20249;-73
2021/05/21 10:22:40;;;;;;;16.58;3.65;;;18.60;99.90;;;;;;4963368;28;20049;-74
2021/05/21 10:25:14;;;;;;;15.00;3.65;;;18.70;99.90;;;;;;4966813;28;20027;-73
2021/05/21 10:27:43;;;;;;;9.60;3.20;;;19.00;99.90;;;;;;4971610;28;20042;-74
2021/05/21 10:30:09;;;;;;;12.65;2.63;;;19.10;99.90;;;;;;4964859;28;20106;-74
2021/05/21 10:32:35;;;;;;;14.05;2.95;;;18.90;99.90;;;;;;4973326;28;20049;-71
2021/05/21 10:35:16;;;;;;;14.00;3.55;;;19.10;99.90;;;;;;4964303;28;20097;-71
2021/05/21 10:37:41;;;;;;;10.35;2.80;;;18.80;99.10;;;;;;4963737;28;20501;-70
2021/05/21 10:40:10;;;;;;;12.30;2.53;;;18.70;98.00;;;;;;4976209;28;20109;-68
2021/05/21 10:42:47;;;;;;;14.30;2.83;;;18.90;98.90;;;;;;4962208;28;20039;-71
2021/05/21 10:45:18;;;;;;;9.40;2.42;;;19.10;98.50;;;;;;4965847;28;20096;-71
2021/05/21 10:47:48;;;;;;;9.27;2.47;;;19.50;98.70;;;;;;4962636;28;20030;-77
2021/05/21 10:50:19;;;;;;;11.43;2.75;;;19.30;99.40;;;;;;4958621;28;20031;-74
2021/05/21 10:53:05;;;;;;;8.88;2.30;;;19.00;98.60;;;;;;4965417;28;20471;-75
2021/05/21 10:55:39;;;;;;;12.80;2.38;;;18.80;98.00;;;;;;4961063;28;20054;-69
2021/05/21 10:58:05;;;;;;;10.07;2.67;;;18.80;98.60;;;;;;4959278;28;20030;-75
2021/05/21 11:00:31;;;;;;;11.10;2.70;;;18.70;98.90;;;;;;4966075;28;20110;-76
2021/05/21 11:02:57;;;;;;;21.77;10.10;;;18.60;97.80;;;;;;4966391;28;20043;-76
2021/05/21 11:05:25;;;;;;;15.35;3.58;;;18.40;97.70;;;;;;4955892;28;20078;-74
2021/05/21 11:07:57;;;;;;;55.83;6.88;;;18.30;97.40;;;;;;4962427;28;20085;-74
2021/05/21 11:10:32;;;;;;;15.40;3.20;;;18.30;99.10;;;;;;4962810;28;20110;-80
2021/05/21 11:13:07;;;;;;;12.18;2.08;;;18.40;97.90;;;;;;4961954;28;20031;-69
2021/05/21 11:15:36;;;;;;;15.30;2.83;;;18.70;97.60;;;;;;4957738;28;20027;-71
2021/05/21 11:18:14;;;;;;;9.05;2.78;;;19.20;98.80;;;;;;4960558;28;20444;-72
2021/05/21 11:20:57;;;;;;;15.57;2.83;;;19.60;97.70;;;;;;4965268;28;20456;-74
2021/05/21 11:23:26;;;;;;;189.70;17.85;;;20.10;96.80;;;;;;4962205;28;20488;-74
2021/05/21 11:26:13;;;;;;;8.35;2.63;;;20.30;96.20;;;;;;4963418;28;20022;-77
2021/05/21 11:28:48;;;;;;;9.82;2.38;;;19.90;95.70;;;;;;4958289;28;20038;-75
2021/05/21 11:31:26;;;;;;;11.63;2.78;;;20.20;96.80;;;;;;4961158;28;20026;-78
2021/05/21 11:33:53;;;;;;;11.27;2.53;;;20.10;96.30;;;;;;4963150;28;20113;-74
2021/05/21 11:36:20;;;;;;;17.83;3.05;;;20.30;95.80;;;;;;4966139;28;20038;-78
2021/05/21 11:38:46;;;;;;;14.18;3.28;;;20.20;95.60;;;;;;4955819;28;20031;-76
2021/05/21 11:41:12;;;;;;;10.18;2.33;;;19.80;96.60;;;;;;4960312;28;20039;-78
2021/05/21 11:43:46;;;;;;;11.05;2.35;;;19.50;98.60;;;;;;4964149;28;20412;-76
2021/05/21 11:46:13;;;;;;;11.55;2.38;;;19.30;96.90;;;;;;4974263;28;20022;-76
2021/05/21 11:48:40;;;;;;;9.63;3.08;;;19.20;97.80;;;;;;4967716;28;20039;-74
2021/05/21 11:51:10;;;;;;;19.42;2.60;;;18.90;95.60;;;;;;4974463;28;20037;-76
2021/05/21 11:53:53;;;;;;;11.65;2.25;;;18.70;96.70;;;;;;4971068;28;20126;-74
2021/05/21 11:56:40;;;;;;;12.95;2.50;;;18.90;96.00;;;;;;4967453;28;20030;-78
2021/05/21 11:59:14;;;;;;;12.18;2.47;;;19.40;96.00;;;;;;4968649;28;20055;-79
2021/05/21 12:01:45;;;;;;;8.93;2.42;;;19.60;96.10;;;;;;4965968;28;20031;-77
2021/05/21 12:04:11;;;;;;;11.10;2.45;;;19.70;95.60;;;;;;4963850;28;20148;-82
2021/05/21 12:06:40;;;;;;;10.60;2.70;;;20.10;95.00;;;;;;4971993;28;20054;-76
2021/05/21 12:09:11;;;;;;;14.60;2.72;;;20.30;94.20;;;;;;4975456;28;20503;-80
2021/05/21 12:11:37;;;;;;;10.00;2.22;;;20.00;94.20;;;;;;4971723;28;20031;-83
2021/05/21 12:14:04;;;;;;;16.23;2.35;;;19.90;94.70;;;;;;4968558;28;20034;-80
2021/05/21 12:16:31;;;;;;;18.48;2.58;;;20.00;94.80;;;;;;4964794;28;20027;-80
2021/05/21 12:18:58;;;;;;;10.02;2.28;;;20.10;93.90;;;;;;4962699;28;20471;-77
2021/05/21 12:21:29;;;;;;;8.80;2.10;;;20.30;95.20;;;;;;4967622;28;20102;-76
2021/05/21 12:23:57;;;;;;;14.55;2.25;;;20.30;94.00;;;;;;4965345;28;20035;-82
2021/05/21 12:26:25;;;;;;;10.43;2.38;;;20.10;93.20;;;;;;4966454;28;20022;-84
2021/05/21 12:28:53;;;;;;;12.77;2.75;;;19.60;93.50;;;;;;4964498;28;20420;-83
2021/05/21 12:31:30;;;;;;;10.32;2.45;;;19.30;93.80;;;;;;4972144;28;20026;-83
2021/05/21 12:33:58;;;;;;;13.80;3.08;;;19.40;93.30;;;;;;4968455;28;20026;-85
2021/05/21 12:36:26;;;;;;;14.00;2.30;;;19.30;93.20;;;;;;4969339;28;20502;-85
2021/05/21 12:38:55;;;;;;;19.25;2.28;;;19.40;93.70;;;;;;4961717;28;20011;-82
2021/05/21 12:41:28;;;;;;;18.23;2.85;;;19.30;94.30;;;;;;4971991;28;20031;-81
2021/05/21 12:43:54;;;;;;;9.95;2.17;;;19.60;95.60;;;;;;4968728;28;20058;-80